Time;durP1;ratioP1;P1;durP2;ratioP2;P2;SDS_P1;SDS_P2;PMS_P1;PMS_P2;Temp;Humidity;BMP_temperature;BMP_pressure;BME280_temperature;BME280_humidity;BME280_pressure;Samples;Min_cycle;Max_cycle;Signal;HPM_P1;HPM_P2
2023/06/01 00:00:09;;;;;;;15.57;12.55;;;;;;;;;;10162373;28;20050;-66
2023/06/01 00:05:06;;;;;;;14.20;11.95;;;;;;;;;;10156610;28;20464;-67
2023/06/01 00:10:02;;;;;;;15.23;10.52;;;;;;;;;;10162345;28;20468;-69
2023/06/01 00:14:59;;;;;;;15.75;10.65;;;;;;;;;;10165901;28;20046;-67
2023/06/01 00:19:55;;;;;;;20.15;11.38;;;;;;;;;;10155423;28;20042;-67
2023/06/01 00:24:51;;;;;;;15.57;12.00;;;;;;;;;;10181509;28;20474;-67
2023/06/01 00:29:48;;;;;;;18.60;10.88;;;;;;;;;;10159790;28;20083;-66
2023/06/01 00:34:44;;;;;;;15.43;10.80;;;;;;;;;;10171267;28;20043;-66
2023/06/01 00:39:40;;;;;;;16.38;10.82;;;;;;;;;;10161251;28;20088;-65
2023/06/01 00:44:37;;;;;;;16.80;11.80;;;;;;;;;;10162108;28;20093;-66
2023/06/01 00:49:33;;;;;;;15.68;11.23;;;;;;;;;;10159138;28;20516;-66
2023/06/01 00:54:33;;;;;;;19.05;13.38;;;;;;;;;;10170977;28;20069;-65
2023/06/01 00:59:36;;;;;;;17.65;13.35;;;;;;;;;;10173702;28;20047;-66
2023/06/01 01:04:34;;;;;;;19.02;12.05;;;;;;;;;;10166915;28;20064;-67
2023/06/01 01:09:34;;;;;;;20.08;12.73;;;;;;;;;;10180156;28;20447;-66
2023/06/01 01:14:39;;;;;;;21.50;13.23;;;;;;;;;;10170850;28;20052;-66
2023/06/01 01:20:15;;;;;;;15.93;10.77;;;;;;;;;;10168635;28;20092;-66
2023/06/01 01:25:12;;;;;;;17.50;11.07;;;;;;;;;;10181016;28;20116;-66
2023/06/01 01:30:14;;;;;;;14.05;10.05;;;;;;;;;;10173014;28;20145;-67
2023/06/01 01:35:11;;;;;;;13.20;10.85;;;;;;;;;;10172038;28;20046;-65
2023/06/01 01:40:14;;;;;;;14.40;9.93;;;;;;;;;;10180812;28;20057;-65
2023/06/01 01:45:11;;;;;;;13.52;9.27;;;;;;;;;;10163409;28;20054;-65
2023/06/01 01:50:10;;;;;;;17.73;9.90;;;;;;;;;;10180087;28;20061;-67
2023/06/01 01:55:10;;;;;;;17.00;9.70;;;;;;;;;;10169641;28;20050;-67
2023/06/01 02:00:12;;;;;;;16.35;10.05;;;;;;;;;;10167366;28;20046;-67
2023/06/01 02:05:13;;;;;;;17.90;11.07;;;;;;;;;;10183155;28;20096;-66
2023/06/01 02:10:10;;;;;;;20.38;11.90;;;;;;;;;;10176201;28;20057;-66
2023/06/01 02:15:12;;;;;;;15.20;11.15;;;;;;;;;;10165168;28;20452;-68
2023/06/01 02:20:12;;;;;;;20.67;11.90;;;;;;;;;;10160895;28;20551;-67
2023/06/01 02:25:11;;;;;;;14.50;10.68;;;;;;;;;;10163975;28;20408;-67
2023/06/01 02:30:13;;;;;;;15.07;9.70;;;;;;;;;;10165038;28;20041;-67
2023/06/01 02:35:10;;;;;;;17.65;10.10;;;;;;;;;;10163964;28;20077;-67
2023/06/01 02:40:12;;;;;;;15.38;9.73;;;;;;;;;;10174542;28;20124;-68
2023/06/01 02:45:14;;;;;;;23.52;9.93;;;;;;;;;;10183328;28;20085;-68
2023/06/01 02:50:13;;;;;;;16.03;9.43;;;;;;;;;;10180581;28;20061;-66
2023/06/01 02:55:23;;;;;;;13.98;10.20;;;;;;;;;;10165167;28;20117;-67
2023/06/01 03:00:25;;;;;;;17.13;10.60;;;;;;;;;;10174577;28;20782;-67
2023/06/01 03:05:24;;;;;;;16.50;11.25;;;;;;;;;;10178326;28;20054;-67
2023/06/01 03:10:23;;;;;;;20.52;11.18;;;;;;;;;;10172949;28;20173;-67
2023/06/01 03:15:27;;;;;;;19.13;11.00;;;;;;;;;;10170483;28;20046;-67
2023/06/01 03:20:39;;;;;;;17.40;11.25;;;;;;;;;;10172210;28;20689;-67
2023/06/01 03:25:41;;;;;;;16.52;11.20;;;;;;;;;;10165438;28;20046;-67
2023/06/01 03:30:38;;;;;;;12.32;10.57;;;;;;;;;;10171767;28;20046;-68
2023/06/01 03:35:40;;;;;;;14.43;8.90;;;;;;;;;;10171725;28;20466;-67
2023/06/01 03:40:37;;;;;;;20.48;10.23;;;;;;;;;;10169851;28;20622;-68
2023/06/01 03:45:36;;;;;;;14.52;9.95;;;;;;;;;;10160944;28;20054;-67
2023/06/01 03:50:40;;;;;;;17.38;11.02;;;;;;;;;;10165670;28;20133;-68
2023/06/01 03:55:37;;;;;;;19.60;11.20;;;;;;;;;;10161311;28;20065;-66
2023/06/01 04:00:34;;;;;;;20.20;11.45;;;;;;;;;;10157195;28;20061;-66
2023/06/01 04:05:30;;;;;;;11.70;10.50;;;;;;;;;;10158273;28;20043;-66
2023/06/01 04:10:27;;;;;;;17.40;11.15;;;;;;;;;;10157362;28;20050;-66
2023/06/01 04:15:26;;;;;;;19.13;11.35;;;;;;;;;;10153477;28;20054;-66
2023/06/01 04:20:40;;;;;;;14.68;10.80;;;;;;;;;;10173119;28;20057;-66
2023/06/01 04:25:51;;;;;;;19.05;10.73;;;;;;;;;;10170434;28;20042;-65
2023/06/01 04:30:58;;;;;;;20.13;11.77;;;;;;;;;;10163960;28;20042;-67
2023/06/01 04:35:58;;;;;;;18.08;11.32;;;;;;;;;;10164942;28;20058;-71
2023/06/01 04:41:00;;;;;;;20.10;10.48;;;;;;;;;;10170246;28;20484;-71
2023/06/01 04:46:05;;;;;;;17.23;11.30;;;;;;;;;;10164057;28;20091;-74
2023/06/01 04:51:19;;;;;;;15.23;11.85;;;;;;;;;;10170921;28;20420;-72
2023/06/01 04:56:20;;;;;;;19.25;13.32;;;;;;;;;;10174009;28;20101;-73
2023/06/01 05:01:17;;;;;;;21.70;12.80;;;;;;;;;;10160259;28;20125;-72
2023/06/01 05:06:16;;;;;;;16.33;10.98;;;;;;;;;;10167783;28;20534;-72
2023/06/01 05:11:16;;;;;;;16.60;11.55;;;;;;;;;;10155401;28;20042;-72
2023/06/01 05:16:16;;;;;;;14.10;11.65;;;;;;;;;;10158897;28;20050;-72
2023/06/01 05:21:18;;;;;;;14.95;10.77;;;;;;;;;;10149746;28;20393;-72
2023/06/01 05:26:16;;;;;;;14.77;11.57;;;;;;;;;;10156650;28;20057;-72
2023/06/01 05:31:20;;;;;;;17.67;11.60;;;;;;;;;;10168543;28;20054;-71
2023/06/01 05:36:27;;;;;;;28.48;12.65;;;;;;;;;;10133523;28;20540;-72
2023/06/01 05:41:31;;;;;;;22.40;12.50;;;;;;;;;;10150675;28;20104;-72
2023/06/01 05:46:28;;;;;;;19.02;11.73;;;;;;;;;;10171230;28;20057;-71
2023/06/01 05:51:29;;;;;;;15.70;12.25;;;;;;;;;;10165402;28;20056;-72
2023/06/01 05:56:29;;;;;;;16.07;11.90;;;;;;;;;;10157130;28;20046;-71
2023/06/01 06:01:35;;;;;;;20.27;11.50;;;;;;;;;;10156118;28;20233;-71
2023/06/01 06:06:44;;;;;;;15.23;10.88;;;;;;;;;;10166069;28;20130;-71
2023/06/01 06:11:43;;;;;;;14.20;11.02;;;;;;;;;;10173198;28;20681;-72
2023/06/01 06:16:49;;;;;;;16.95;12.10;;;;;;;;;;10164383;28;20484;-71
2023/06/01 06:21:50;;;;;;;14.32;10.38;;;;;;;;;;10144806;28;20133;-71
2023/06/01 06:26:50;;;;;;;15.27;10.48;;;;;;;;;;10126811;28;20042;-71
2023/06/01 06:31:46;;;;;;;17.35;11.48;;;;;;;;;;10137401;28;20043;-71
2023/06/01 06:36:48;;;;;;;15.00;11.25;;;;;;;;;;10162288;28;20049;-71
2023/06/01 06:41:47;;;;;;;17.90;11.65;;;;;;;;;;10159661;28;20050;-71
2023/06/01 06:46:49;;;;;;;15.63;11.05;;;;;;;;;;10155035;28;20519;-72
2023/06/01 06:51:49;;;;;;;12.25;10.02;;;;;;;;;;10171784;28;20052;-71
2023/06/01 06:56:47;;;;;;;17.60;10.50;;;;;;;;;;10165441;28;20042;-72
2023/06/01 07:01:43;;;;;;;12.27;10.70;;;;;;;;;;10179150;28;20069;-71
2023/06/01 07:06:43;;;;;;;16.45;10.05;;;;;;;;;;10174070;28;20505;-69
2023/06/01 07:11:47;;;;;;;14.95;11.27;;;;;;;;;;10171915;28;20049;-71
2023/06/01 07:16:47;;;;;;;16.63;11.00;;;;;;;;;;10161033;28;20048;-71
2023/06/01 07:21:49;;;;;;;10.77;9.38;;;;;;;;;;10164386;28;20137;-71
2023/06/01 07:26:46;;;;;;;17.02;9.43;;;;;;;;;;10168957;28;20065;-72
2023/06/01 07:31:48;;;;;;;19.63;8.98;;;;;;;;;;10156024;28;20046;-72
2023/06/01 07:36:48;;;;;;;14.25;8.32;;;;;;;;;;10159816;28;20109;-72
2023/06/01 07:41:45;;;;;;;14.70;9.50;;;;;;;;;;10147259;28;20043;-72
2023/06/01 07:46:42;;;;;;;21.95;9.90;;;;;;;;;;10129288;28;20139;-72
2023/06/01 07:51:42;;;;;;;13.10;9.30;;;;;;;;;;10151534;28;20050;-72
2023/06/01 07:56:42;;;;;;;12.95;8.63;;;;;;;;;;10154714;28;20054;-72
2023/06/01 08:01:44;;;;;;;17.80;9.98;;;;;;;;;;10149908;28;20153;-72
2023/06/01 08:06:43;;;;;;;16.40;9.13;;;;;;;;;;10132673;28;20129;-72
2023/06/01 08:11:43;;;;;;;;;;;;;;;;;;10150711;28;20038;-72
2023/06/01 08:16:40;;;;;;;10.48;8.50;;;;;;;;;;10163250;28;20532;-72
2023/06/01 08:21:36;;;;;;;11.65;8.82;;;;;;;;;;10158128;28;20046;-72
2023/06/01 08:26:38;;;;;;;14.93;8.95;;;;;;;;;;10152796;28;20056;-72
2023/06/01 08:31:39;;;;;;;14.63;8.83;;;;;;;;;;10155980;28;20042;-71
2023/06/01 08:36:38;;;;;;;21.00;9.73;;;;;;;;;;10160721;28;20050;-68
2023/06/01 08:41:40;;;;;;;20.73;9.52;;;;;;;;;;10157059;28;20060;-70
2023/06/01 08:46:44;;;;;;;9.98;8.57;;;;;;;;;;10167545;28;20057;-72
2023/06/01 08:51:42;;;;;;;10.40;8.95;;;;;;;;;;10155697;28;20056;-70
2023/06/01 08:56:44;;;;;;;15.23;9.18;;;;;;;;;;10168224;28;20145;-72
2023/06/01 09:01:50;;;;;;;9.55;8.55;;;;;;;;;;10167535;28;20046;-72
2023/06/01 09:06:50;;;;;;;16.10;9.27;;;;;;;;;;10153076;28;20049;-72
2023/06/01 09:12:11;;;;;;;17.38;8.90;;;;;;;;;;10131530;28;20148;-72
2023/06/01 09:17:15;;;;;;;16.08;10.52;;;;;;;;;;10172927;28;20387;-72
2023/06/01 09:22:14;;;;;;;14.00;9.55;;;;;;;;;;10174769;28;20133;-72
2023/06/01 09:27:14;;;;;;;10.50;9.20;;;;;;;;;;10165661;28;20085;-72
2023/06/01 09:32:21;;;;;;;11.25;9.23;;;;;;;;;;10162812;28;20078;-72
2023/06/01 09:37:25;;;;;;;14.68;9.38;;;;;;;;;;10151581;28;20066;-72
2023/06/01 09:42:36;;;;;;;12.68;8.13;;;;;;;;;;10157321;28;20063;-72
2023/06/01 09:47:41;;;;;;;17.33;9.95;;;;;;;;;;10161067;28;20104;-72
2023/06/01 09:52:41;;;;;;;15.45;7.80;;;;;;;;;;10141573;28;20456;-72
2023/06/01 09:57:47;;;;;;;13.10;8.32;;;;;;;;;;10161444;28;20042;-72
2023/06/01 10:02:43;;;;;;;;;;;;;;;;;;10155547;28;20051;-72
2023/06/01 10:07:41;;;;;;;17.98;8.98;;;;;;;;;;10188601;28;19968;-72
2023/06/01 10:12:41;;;;;;;12.35;8.52;;;;;;;;;;10163489;28;20046;-71
2023/06/01 10:17:44;;;;;;;13.65;9.38;;;;;;;;;;10168138;28;20042;-72
2023/06/01 10:22:45;;;;;;;14.60;8.63;;;;;;;;;;10172249;28;20564;-71
2023/06/01 10:27:53;;;;;;;17.50;9.07;;;;;;;;;;10170666;28;20045;-71
2023/06/01 10:32:55;;;;;;;18.48;9.43;;;;;;;;;;10167485;28;20508;-71
2023/06/01 10:38:09;;;;;;;11.90;8.27;;;;;;;;;;10165903;28;20812;-72
2023/06/01 10:43:08;;;;;;;14.38;8.50;;;;;;;;;;10162703;28;20781;-74
2023/06/01 10:48:13;;;;;;;15.00;9.18;;;;;;;;;;10162927;28;20045;-72
2023/06/01 10:53:36;;;;;;;15.02;8.98;;;;;;;;;;10158040;28;20067;-72
2023/06/01 10:58:36;;;;;;;11.95;8.75;;;;;;;;;;10157567;28;20516;-72
2023/06/01 11:03:42;;;;;;;13.80;9.13;;;;;;;;;;10158366;28;20042;-72
2023/06/01 11:09:00;;;;;;;11.77;7.80;;;;;;;;;;10154650;28;20458;-72
2023/06/01 11:14:08;;;;;;;11.63;8.10;;;;;;;;;;10151792;28;20042;-69
2023/06/01 11:19:11;;;;;;;19.05;9.63;;;;;;;;;;10173305;28;20050;-72
2023/06/01 11:24:20;;;;;;;11.30;8.52;;;;;;;;;;10160816;28;20104;-72
2023/06/01 11:29:23;;;;;;;10.68;8.20;;;;;;;;;;10158042;28;20038;-71
2023/06/01 11:34:41;;;;;;;17.17;10.30;;;;;;;;;;10126408;28;20046;-71
2023/06/01 11:39:42;;;;;;;11.60;8.68;;;;;;;;;;10153368;28;20099;-72
2023/06/01 11:44:46;;;;;;;13.45;8.40;;;;;;;;;;10159376;28;20138;-71
2023/06/01 11:49:53;;;;;;;11.77;7.07;;;;;;;;;;10156006;28;20062;-72
2023/06/01 11:54:53;;;;;;;11.77;8.20;;;;;;;;;;10154672;28;20633;-72
2023/06/01 11:59:53;;;;;;;11.50;8.45;;;;;;;;;;10136931;28;20034;-72
2023/06/01 12:04:57;;;;;;;8.85;7.70;;;;;;;;;;10154081;28;20096;-70
2023/06/01 12:10:06;;;;;;;12.38;8.20;;;;;;;;;;10156631;28;20165;-72
2023/06/01 12:15:04;;;;;;;12.65;8.48;;;;;;;;;;10155255;28;20608;-72
2023/06/01 12:20:01;;;;;;;10.80;7.30;;;;;;;;;;10159349;28;20413;-71
2023/06/01 12:25:08;;;;;;;15.00;8.48;;;;;;;;;;10161072;28;20105;-70
2023/06/01 12:30:19;;;;;;;14.38;7.85;;;;;;;;;;10163569;28;20062;-70
2023/06/01 12:35:17;;;;;;;19.27;8.43;;;;;;;;;;10151486;28;20050;-70
2023/06/01 12:40:22;;;;;;;13.18;8.13;;;;;;;;;;10151016;28;20046;-70
2023/06/01 12:45:19;;;;;;;16.27;8.55;;;;;;;;;;10154351;28;20046;-71
2023/06/01 12:50:16;;;;;;;13.90;8.15;;;;;;;;;;10164007;28;20137;-70
2023/06/01 12:55:12;;;;;;;16.80;7.60;;;;;;;;;;10147635;28;20489;-71
2023/06/01 13:00:15;;;;;;;16.35;7.72;;;;;;;;;;10124722;28;20090;-71
2023/06/01 13:05:12;;;;;;;;;;;;;;;;;;10109600;28;20038;-70
2023/06/01 13:10:15;;;;;;;9.55;7.00;;;;;;;;;;10123054;28;19953;-70
2023/06/01 13:15:12;;;;;;;15.93;7.88;;;;;;;;;;10131706;28;20046;-70
2023/06/01 13:20:11;;;;;;;16.88;6.97;;;;;;;;;;10117939;28;20560;-71
2023/06/01 13:25:09;;;;;;;12.95;7.32;;;;;;;;;;10167440;28;20042;-71
2023/06/01 13:30:11;;;;;;;11.10;6.65;;;;;;;;;;10174525;28;20080;-71
2023/06/01 13:35:13;;;;;;;17.60;7.95;;;;;;;;;;10160290;28;20050;-70
2023/06/01 13:40:09;;;;;;;;;;;;;;;;;;10158392;28;20113;-70
2023/06/01 13:45:08;;;;;;;17.92;7.85;;;;;;;;;;10159923;28;19944;-70
2023/06/01 13:50:12;;;;;;;16.15;7.30;;;;;;;;;;10140088;28;20174;-70
2023/06/01 13:55:13;;;;;;;12.90;7.50;;;;;;;;;;10133613;28;20131;-69
2023/06/01 14:00:10;;;;;;;10.98;7.18;;;;;;;;;;10141820;28;20549;-71
2023/06/01 14:05:17;;;;;;;15.18;7.85;;;;;;;;;;10169123;28;20034;-70
2023/06/01 14:10:37;;;;;;;10.80;7.15;;;;;;;;;;10171981;28;20542;-70
2023/06/01 14:15:37;;;;;;;18.75;7.68;;;;;;;;;;10175278;28;20558;-71
2023/06/01 14:20:45;;;;;;;11.77;7.90;;;;;;;;;;10175373;28;20038;-71
2023/06/01 14:25:41;;;;;;;12.45;7.15;;;;;;;;;;10165847;28;20100;-70
2023/06/01 14:30:41;;;;;;;14.05;8.55;;;;;;;;;;10171157;28;20570;-71
2023/06/01 14:35:38;;;;;;;10.77;7.10;;;;;;;;;;10176230;28;20042;-69
2023/06/01 14:40:40;;;;;;;16.83;7.88;;;;;;;;;;10157605;28;20046;-70
2023/06/01 14:45:39;;;;;;;16.05;7.45;;;;;;;;;;10156103;28;20133;-70
2023/06/01 14:50:36;;;;;;;15.90;8.02;;;;;;;;;;10154748;28;20046;-71
2023/06/01 14:55:35;;;;;;;14.98;8.10;;;;;;;;;;10158810;28;20061;-71
2023/06/01 15:00:34;;;;;;;13.20;8.25;;;;;;;;;;10151095;28;20049;-71
2023/06/01 15:05:33;;;;;;;12.50;7.63;;;;;;;;;;10164693;28;20495;-72
2023/06/01 15:10:38;;;;;;;20.90;8.05;;;;;;;;;;10155437;28;20065;-71
2023/06/01 15:15:35;;;;;;;19.45;7.95;;;;;;;;;;10129153;28;20050;-70
2023/06/01 15:20:35;;;;;;;18.58;8.48;;;;;;;;;;10144615;28;20570;-73
2023/06/01 15:25:34;;;;;;;16.48;7.53;;;;;;;;;;10152517;28;20054;-72
2023/06/01 15:30:39;;;;;;;17.98;8.07;;;;;;;;;;10164899;28;20511;-74
2023/06/01 15:35:36;;;;;;;20.35;7.13;;;;;;;;;;10170667;28;20381;-74
2023/06/01 15:40:35;;;;;;;12.27;8.02;;;;;;;;;;10155852;28;20058;-75
2023/06/01 15:45:32;;;;;;;14.60;8.40;;;;;;;;;;10126520;28;20054;-74
2023/06/01 15:50:37;;;;;;;18.35;8.50;;;;;;;;;;10166842;28;20048;-75
2023/06/01 15:55:36;;;;;;;17.40;9.05;;;;;;;;;;10168275;28;20508;-75
2023/06/01 16:00:33;;;;;;;18.20;8.20;;;;;;;;;;10160639;28;20544;-75
2023/06/01 16:05:32;;;;;;;19.17;8.45;;;;;;;;;;10175880;28;20559;-73
2023/06/01 16:10:29;;;;;;;17.98;7.53;;;;;;;;;;10162585;28;20058;-74
2023/06/01 16:15:26;;;;;;;19.63;8.45;;;;;;;;;;10129288;28;20050;-74
2023/06/01 16:20:31;;;;;;;19.75;7.88;;;;;;;;;;10123170;28;20535;-74
2023/06/01 16:25:33;;;;;;;23.00;8.68;;;;;;;;;;10183142;28;20073;-73
2023/06/01 16:30:41;;;;;;;13.82;6.75;;;;;;;;;;10158873;28;20049;-74
2023/06/01 16:35:44;;;;;;;17.27;8.35;;;;;;;;;;10184326;28;20052;-73
2023/06/01 16:40:40;;;;;;;16.73;7.38;;;;;;;;;;10159943;28;20054;-73
2023/06/01 16:45:38;;;;;;;15.10;7.43;;;;;;;;;;10158497;28;20054;-72
2023/06/01 16:50:35;;;;;;;16.90;7.47;;;;;;;;;;10120834;28;20054;-73
2023/06/01 16:55:38;;;;;;;17.30;7.07;;;;;;;;;;10166628;28;20057;-73
2023/06/01 17:00:45;;;;;;;17.85;7.82;;;;;;;;;;10162645;28;20049;-74
2023/06/01 17:05:45;;;;;;;21.15;8.65;;;;;;;;;;10163365;28;20053;-74
2023/06/01 17:10:49;;;;;;;20.10;8.70;;;;;;;;;;10148517;28;20049;-75
2023/06/01 17:15:48;;;;;;;19.83;8.43;;;;;;;;;;10130412;28;20050;-74
2023/06/01 17:20:51;;;;;;;19.85;8.80;;;;;;;;;;10160866;28;20053;-74
2023/06/01 17:25:54;;;;;;;15.65;6.95;;;;;;;;;;10170539;28;20051;-74
2023/06/01 17:30:51;;;;;;;17.50;8.60;;;;;;;;;;10165409;28;20065;-74
2023/06/01 17:35:49;;;;;;;19.25;8.00;;;;;;;;;;10172317;28;20039;-74
2023/06/01 17:40:59;;;;;;;15.02;7.78;;;;;;;;;;10186090;28;20464;-74
2023/06/01 17:46:05;;;;;;;;;;;;;;;;;;10163843;28;20538;-73
2023/06/01 17:51:01;;;;;;;20.38;7.70;;;;;;;;;;10161955;28;20028;-72
2023/06/01 17:55:59;;;;;;;17.65;8.00;;;;;;;;;;10155511;28;20137;-72
2023/06/01 18:01:00;;;;;;;20.10;6.93;;;;;;;;;;10165066;28;20528;-72
2023/06/01 18:05:58;;;;;;;19.63;7.55;;;;;;;;;;10165083;28;20133;-72
2023/06/01 18:10:54;;;;;;;16.95;7.07;;;;;;;;;;10164685;28;20046;-72
2023/06/01 18:15:52;;;;;;;21.33;7.97;;;;;;;;;;10173786;28;20046;-72
2023/06/01 18:20:51;;;;;;;18.40;8.00;;;;;;;;;;10172751;28;20059;-72
2023/06/01 18:25:51;;;;;;;23.38;9.10;;;;;;;;;;10170475;28;20068;-72
2023/06/01 18:30:48;;;;;;;16.90;7.70;;;;;;;;;;10181142;28;20069;-72
2023/06/01 18:35:47;;;;;;;20.60;7.82;;;;;;;;;;10168588;28;20042;-72
2023/06/01 18:40:45;;;;;;;15.32;7.10;;;;;;;;;;10172569;28;20066;-72
2023/06/01 18:45:44;;;;;;;17.95;7.47;;;;;;;;;;10168962;28;20050;-72
2023/06/01 18:50:41;;;;;;;19.05;8.45;;;;;;;;;;10174486;28;20050;-72
2023/06/01 18:55:38;;;;;;;24.70;7.78;;;;;;;;;;10161458;28;20592;-72
2023/06/01 19:00:35;;;;;;;20.80;7.63;;;;;;;;;;10133554;28;20056;-72
2023/06/01 19:05:36;;;;;;;21.20;7.63;;;;;;;;;;10158852;28;20149;-72
2023/06/01 19:10:32;;;;;;;22.38;8.07;;;;;;;;;;10172060;28;20054;-72
2023/06/01 19:15:30;;;;;;;15.80;7.35;;;;;;;;;;10165227;28;20050;-72
2023/06/01 19:20:47;;;;;;;17.13;8.07;;;;;;;;;;10167718;28;20077;-72
2023/06/01 19:25:44;;;;;;;20.83;8.82;;;;;;;;;;10169095;28;20053;-72
2023/06/01 19:30:45;;;;;;;19.20;8.07;;;;;;;;;;10174972;28;20050;-72
2023/06/01 19:35:43;;;;;;;22.67;8.98;;;;;;;;;;10175933;28;20116;-72
2023/06/01 19:40:43;;;;;;;19.80;8.35;;;;;;;;;;10169425;28;20660;-73
2023/06/01 19:45:42;;;;;;;29.13;9.35;;;;;;;;;;10163505;28;20053;-73
2023/06/01 19:50:43;;;;;;;19.38;6.32;;;;;;;;;;10156695;28;20045;-70
2023/06/01 19:55:44;;;;;;;17.00;6.82;;;;;;;;;;10163547;28;20133;-71
2023/06/01 20:00:40;;;;;;;21.77;7.10;;;;;;;;;;10159204;28;20101;-68
2023/06/01 20:05:40;;;;;;;20.95;7.13;;;;;;;;;;10174172;28;20042;-65
2023/06/01 20:10:41;;;;;;;13.77;6.72;;;;;;;;;;10171993;28;20142;-67
2023/06/01 20:15:46;;;;;;;15.32;6.15;;;;;;;;;;10155561;28;20074;-67
2023/06/01 20:20:45;;;;;;;15.75;6.95;;;;;;;;;;10157280;28;20050;-67
2023/06/01 20:25:43;;;;;;;21.67;8.13;;;;;;;;;;10171534;28;20042;-67
2023/06/01 20:31:00;;;;;;;19.88;7.47;;;;;;;;;;10165942;28;20104;-65
2023/06/01 20:36:00;;;;;;;18.70;7.40;;;;;;;;;;10171835;28;20532;-65
2023/06/01 20:41:25;;;;;;;26.02;7.53;;;;;;;;;;10158695;28;20046;-66
2023/06/01 20:46:25;;;;;;;22.47;7.93;;;;;;;;;;10163652;28;20650;-66
2023/06/01 20:51:28;;;;;;;23.77;9.20;;;;;;;;;;10180605;28;20046;-66
2023/06/01 20:56:35;;;;;;;17.00;7.63;;;;;;;;;;10177929;28;20050;-64
2023/06/01 21:01:36;;;;;;;22.10;8.50;;;;;;;;;;10147114;28;20100;-65
2023/06/01 21:06:37;;;;;;;16.80;7.80;;;;;;;;;;10166587;28;20420;-66
2023/06/01 21:11:37;;;;;;;19.60;8.88;;;;;;;;;;10178833;28;20050;-65
2023/06/01 21:16:34;;;;;;;21.70;8.93;;;;;;;;;;10172355;28;20065;-66
2023/06/01 21:21:36;;;;;;;15.15;8.07;;;;;;;;;;10170758;28;20050;-66
2023/06/01 21:26:34;;;;;;;23.88;8.85;;;;;;;;;;10169819;28;20046;-63
2023/06/01 21:31:30;;;;;;;19.88;9.02;;;;;;;;;;10172545;28;20058;-64
2023/06/01 21:36:33;;;;;;;19.17;8.35;;;;;;;;;;10173762;28;20517;-66
2023/06/01 21:41:30;;;;;;;18.08;8.55;;;;;;;;;;10177412;28;20046;-66
2023/06/01 21:46:37;;;;;;;22.48;10.35;;;;;;;;;;10170427;28;20124;-66
2023/06/01 21:51:42;;;;;;;22.42;10.75;;;;;;;;;;10174676;28;20050;-66
2023/06/01 21:56:39;;;;;;;24.15;11.38;;;;;;;;;;10176459;28;20069;-66
2023/06/01 22:01:41;;;;;;;19.17;9.02;;;;;;;;;;10169663;28;20054;-66
2023/06/01 22:06:38;;;;;;;24.60;11.70;;;;;;;;;;10178430;28;20070;-66
2023/06/01 22:11:37;;;;;;;23.63;9.88;;;;;;;;;;10166218;28;20073;-67
2023/06/01 22:16:37;;;;;;;19.13;10.25;;;;;;;;;;10174606;28;20092;-66
2023/06/01 22:21:45;;;;;;;24.17;11.50;;;;;;;;;;10152779;28;20520;-66
2023/06/01 22:26:42;;;;;;;23.45;10.20;;;;;;;;;;10155932;28;20140;-66
2023/06/01 22:31:44;;;;;;;15.05;10.35;;;;;;;;;;10167669;28;20053;-67
2023/06/01 22:36:43;;;;;;;19.85;10.38;;;;;;;;;;10168301;28;20054;-67
2023/06/01 22:41:40;;;;;;;22.48;11.25;;;;;;;;;;10178329;28;21401;-66
2023/06/01 22:46:39;;;;;;;19.13;10.45;;;;;;;;;;10174226;28;20050;-65
2023/06/01 22:51:52;;;;;;;19.17;8.75;;;;;;;;;;10171842;28;20443;-65
2023/06/01 22:56:57;;;;;;;21.35;11.10;;;;;;;;;;10180249;28;20042;-64
2023/06/01 23:01:57;;;;;;;25.90;9.50;;;;;;;;;;10170442;28;20049;-65
2023/06/01 23:07:06;;;;;;;15.88;9.45;;;;;;;;;;10177363;28;20038;-65
2023/06/01 23:12:05;;;;;;;21.05;10.90;;;;;;;;;;10166346;28;20056;-68
2023/06/01 23:17:12;;;;;;;24.48;10.73;;;;;;;;;;10168547;28;20042;-68
2023/06/01 23:22:14;;;;;;;21.63;9.68;;;;;;;;;;10173637;28;20109;-68
2023/06/01 23:27:16;;;;;;;19.05;9.27;;;;;;;;;;10166554;28;20108;-68
2023/06/01 23:32:13;;;;;;;25.55;9.65;;;;;;;;;;10168098;28;20042;-67
2023/06/01 23:37:13;;;;;;;19.67;9.63;;;;;;;;;;10152582;28;20066;-66
2023/06/01 23:42:18;;;;;;;18.98;9.95;;;;;;;;;;10137208;28;20047;-66
2023/06/01 23:47:20;;;;;;;22.20;9.75;;;;;;;;;;10144177;28;20042;-66
2023/06/01 23:52:17;;;;;;;20.77;9.00;;;;;;;;;;10144696;28;20046;-64
2023/06/01 23:57:23;;;;;;;21.40;9.45;;;;;;;;;;10165172;28;20037;-65
